Time;durP1;ratioP1;P1;durP2;ratioP2;P2;SDS_P1;SDS_P2;PMS_P1;PMS_P2;Temp;Humidity;BMP_temperature;BMP_pressure;BME280_temperature;BME280_humidity;BME280_pressure;Samples;Min_cycle;Max_cycle;Signal;HPM_P1;HPM_P2
2022/04/02 00:01:13;;;;;;;8.45;5.68;;;-0.60;99.90;;;;;;4824692;29;20473;-77
2022/04/02 00:03:41;;;;;;;9.60;6.38;;;-0.60;99.90;;;;;;4824836;29;20528;-77
2022/04/02 00:06:08;;;;;;;8.55;5.43;;;-0.70;99.90;;;;;;4824736;29;20072;-77
2022/04/02 00:08:36;;;;;;;6.82;5.50;;;-0.70;99.90;;;;;;4807370;29;20093;-77
2022/04/02 00:11:04;;;;;;;8.77;5.68;;;-0.70;99.90;;;;;;4824543;29;20065;-77
2022/04/02 00:13:32;;;;;;;7.68;6.00;;;-0.70;99.90;;;;;;4808395;29;20097;-77
2022/04/02 00:16:01;;;;;;;7.22;5.30;;;-0.60;99.90;;;;;;4823452;29;20058;-77
2022/04/02 00:18:30;;;;;;;8.00;5.57;;;-0.70;99.90;;;;;;4824311;29;20054;-77
2022/04/02 00:20:59;;;;;;;9.52;5.22;;;-0.70;99.90;;;;;;4824372;29;20566;-77
2022/04/02 00:23:40;;;;;;;8.38;5.50;;;-0.70;99.90;;;;;;4824265;29;20082;-77
2022/04/02 00:26:09;;;;;;;9.30;5.70;;;-0.70;99.90;;;;;;4807161;29;20519;-77
2022/04/02 00:28:38;;;;;;;7.13;5.78;;;-0.70;99.90;;;;;;4824044;29;20149;-78
2022/04/02 00:31:13;;;;;;;6.35;5.18;;;-0.70;99.90;;;;;;4807993;29;20110;-78
2022/04/02 00:33:43;;;;;;;5.88;4.70;;;-0.70;99.90;;;;;;4792850;29;20054;-78
2022/04/02 00:36:11;;;;;;;8.90;5.68;;;-0.70;99.90;;;;;;4806734;29;20058;-78
2022/04/02 00:38:40;;;;;;;7.20;4.90;;;-0.70;99.90;;;;;;4807596;29;20127;-78
2022/04/02 00:41:10;;;;;;;8.07;5.90;;;-0.70;99.90;;;;;;4799437;29;20197;-78
2022/04/02 00:43:41;;;;;;;9.18;6.18;;;-0.70;99.90;;;;;;4819096;29;20062;-78
2022/04/02 00:46:12;;;;;;;8.43;5.93;;;-0.70;99.90;;;;;;4807453;29;20132;-78
2022/04/02 00:48:41;;;;;;;9.13;6.32;;;-0.70;99.90;;;;;;4823916;29;20115;-78
2022/04/02 00:51:12;;;;;;;13.68;7.85;;;-0.70;99.90;;;;;;4807655;29;20566;-78
2022/04/02 00:53:44;;;;;;;10.70;7.00;;;-0.70;99.90;;;;;;4823151;29;20073;-78
2022/04/02 00:56:14;;;;;;;11.23;7.45;;;-0.70;99.90;;;;;;4807657;29;20119;-77
2022/04/02 00:58:42;;;;;;;12.45;7.13;;;-0.70;99.90;;;;;;4824232;29;20073;-77
2022/04/02 01:01:16;;;;;;;14.65;8.15;;;-0.70;99.90;;;;;;4806584;29;20078;-77
2022/04/02 01:03:48;;;;;;;12.73;7.68;;;-0.70;99.90;;;;;;4792494;29;20058;-77
2022/04/02 01:06:21;;;;;;;14.27;7.93;;;-0.60;99.90;;;;;;4807550;29;20054;-77
2022/04/02 01:08:50;;;;;;;12.73;7.70;;;-0.60;99.90;;;;;;4807016;29;20070;-78
2022/04/02 01:11:18;;;;;;;17.42;8.68;;;-0.50;99.90;;;;;;4791496;29;20058;-78
2022/04/02 01:13:50;;;;;;;15.53;7.90;;;-0.50;99.90;;;;;;4807331;29;20062;-78
2022/04/02 01:16:21;;;;;;;14.25;8.40;;;-0.50;99.90;;;;;;4792186;29;20054;-78
2022/04/02 01:18:52;;;;;;;14.60;8.55;;;-0.50;99.90;;;;;;4791993;29;20121;-78
2022/04/02 01:21:27;;;;;;;17.13;8.52;;;-0.50;99.90;;;;;;4806233;29;20310;-78
2022/04/02 01:24:01;;;;;;;13.90;7.93;;;-0.40;99.90;;;;;;4807336;29;20046;-78
2022/04/02 01:26:30;;;;;;;10.57;7.55;;;-0.40;99.90;;;;;;4807355;29;20077;-78
2022/04/02 01:29:09;;;;;;;9.55;7.43;;;-0.40;99.90;;;;;;4791307;29;20093;-77
2022/04/02 01:31:48;;;;;;;7.57;6.55;;;-0.40;99.90;;;;;;4806906;29;20066;-78
2022/04/02 01:34:21;;;;;;;9.40;6.47;;;-0.40;99.90;;;;;;4791869;29;20058;-78
2022/04/02 01:36:50;;;;;;;9.35;6.03;;;-0.30;99.90;;;;;;4806905;29;20065;-78
2022/04/02 01:39:25;;;;;;;7.63;5.90;;;-0.30;99.90;;;;;;4805892;29;20062;-77
2022/04/02 01:41:53;;;;;;;9.02;6.00;;;-0.30;99.90;;;;;;4806765;29;20062;-78
2022/04/02 01:44:27;;;;;;;8.10;5.25;;;-0.40;99.90;;;;;;4806704;29;20404;-78
2022/04/02 01:46:55;;;;;;;9.00;4.88;;;-0.30;99.90;;;;;;4790759;29;20062;-77
2022/04/02 01:49:23;;;;;;;7.07;5.18;;;-0.30;99.90;;;;;;4806752;29;20082;-77
2022/04/02 01:51:51;;;;;;;5.72;5.03;;;-0.30;99.90;;;;;;4791537;29;20472;-77
2022/04/02 01:54:20;;;;;;;6.57;5.20;;;-0.30;99.90;;;;;;4806441;29;20520;-77
2022/04/02 01:56:54;;;;;;;7.05;5.15;;;-0.30;99.90;;;;;;4805424;29;20501;-77
2022/04/02 01:59:22;;;;;;;6.22;4.65;;;-0.30;99.90;;;;;;4806333;29;20050;-78
2022/04/02 02:01:55;;;;;;;12.98;6.35;;;-0.30;99.90;;;;;;4791610;29;20054;-77
2022/04/02 02:04:22;;;;;;;7.55;5.85;;;-0.30;99.90;;;;;;4791156;29;20085;-77
2022/04/02 02:06:51;;;;;;;8.60;5.20;;;-0.30;99.90;;;;;;4822414;29;20545;-78
2022/04/02 02:09:23;;;;;;;5.07;4.57;;;-0.40;99.90;;;;;;4791089;29;20058;-78
2022/04/02 02:12:31;;;;;;;8.00;5.13;;;-0.40;99.90;;;;;;4802247;29;20151;-78
2022/04/02 02:15:16;;;;;;;9.50;5.90;;;-0.40;99.90;;;;;;4770749;29;20093;-78
2022/04/02 02:17:50;;;;;;;6.82;4.53;;;-0.40;99.90;;;;;;4799664;29;20150;-78
2022/04/02 02:20:19;;;;;;;6.93;4.20;;;-0.40;99.90;;;;;;4791662;29;20066;-78
2022/04/02 02:22:49;;;;;;;7.35;4.55;;;-0.40;99.90;;;;;;4790034;29;20069;-77
2022/04/02 02:25:18;;;;;;;4.90;4.40;;;-0.50;99.90;;;;;;4822513;29;20065;-78
2022/04/02 02:27:47;;;;;;;6.07;4.28;;;-0.40;99.90;;;;;;4806240;29;20054;-78
2022/04/02 02:30:19;;;;;;;8.73;4.88;;;-0.40;99.90;;;;;;4805933;29;20070;-78
2022/04/02 02:32:47;;;;;;;6.32;4.95;;;-0.40;99.90;;;;;;4804897;29;20069;-77
2022/04/02 02:38:08;;;;;;;4.60;3.85;;;-0.40;99.90;;;;;;4791030;29;20054;-78
2022/04/02 02:40:43;;;;;;;5.00;3.83;;;-0.50;99.90;;;;;;4789874;29;20086;-77
2022/04/02 02:43:17;;;;;;;6.07;3.67;;;-0.40;99.90;;;;;;4805827;29;20523;-78
2022/04/02 02:45:47;;;;;;;7.70;4.00;;;-0.40;99.90;;;;;;4805859;29;20141;-77
2022/04/02 02:48:14;;;;;;;7.32;5.38;;;-0.40;99.90;;;;;;4790997;29;20421;-78
2022/04/02 02:50:48;;;;;;;4.65;3.80;;;-0.40;99.90;;;;;;4804851;29;20160;-78
2022/04/02 02:53:17;;;;;;;4.38;3.67;;;-0.50;99.90;;;;;;4805647;29;20058;-78
2022/04/02 02:55:46;;;;;;;7.82;4.53;;;-0.50;99.90;;;;;;4790663;29;20062;-78
2022/04/02 02:58:15;;;;;;;8.27;3.88;;;-0.50;99.90;;;;;;4805996;29;20361;-78
2022/04/02 03:00:42;;;;;;;7.95;4.70;;;-0.60;99.90;;;;;;4789813;29;20059;-78
2022/04/02 03:03:18;;;;;;;8.40;4.38;;;-0.60;99.90;;;;;;4805635;29;20115;-78
2022/04/02 03:05:47;;;;;;;5.50;4.70;;;-0.60;99.90;;;;;;4790443;29;20054;-78
2022/04/02 03:08:15;;;;;;;4.25;3.85;;;-0.60;99.90;;;;;;4804542;29;20149;-79
2022/04/02 03:10:49;;;;;;;4.72;4.10;;;-0.60;99.90;;;;;;4808364;29;20050;-78
2022/04/02 03:13:26;;;;;;;5.93;4.05;;;-0.60;99.90;;;;;;4809497;29;20058;-77
2022/04/02 03:16:02;;;;;;;5.00;4.47;;;-0.60;99.90;;;;;;4809063;29;20431;-78
2022/04/02 03:18:32;;;;;;;5.80;4.30;;;-0.50;99.90;;;;;;4793349;29;20074;-76
2022/04/02 03:21:02;;;;;;;8.98;4.15;;;-0.50;99.90;;;;;;4825490;29;20468;-77
2022/04/02 03:23:30;;;;;;;9.02;4.95;;;-0.50;99.90;;;;;;4825586;29;20058;-76
2022/04/02 03:25:57;;;;;;;5.57;3.90;;;-0.50;99.90;;;;;;4824595;29;20065;-76
2022/04/02 03:28:27;;;;;;;5.68;3.90;;;-0.50;99.90;;;;;;4790839;29;20069;-76
2022/04/02 03:30:55;;;;;;;11.07;4.78;;;-0.40;99.90;;;;;;4790776;29;20524;-77
2022/04/02 03:33:22;;;;;;;6.80;3.83;;;-0.40;99.90;;;;;;4805913;29;20062;-76
2022/04/02 03:35:52;;;;;;;5.60;3.88;;;-0.30;99.90;;;;;;4796640;29;20149;-76
2022/04/02 03:38:19;;;;;;;4.60;3.50;;;-0.40;99.90;;;;;;4808376;29;20054;-76
2022/04/02 03:40:48;;;;;;;5.80;4.25;;;-0.30;99.90;;;;;;4793346;29;20058;-76
2022/04/02 03:43:15;;;;;;;4.35;3.42;;;-0.30;99.90;;;;;;4801066;29;20477;-76
2022/04/02 03:45:44;;;;;;;4.40;3.72;;;-0.40;99.90;;;;;;4822908;29;20070;-77
2022/04/02 03:48:12;;;;;;;6.30;4.00;;;-0.40;99.90;;;;;;4789866;29;20090;-77
2022/04/02 03:50:42;;;;;;;5.43;4.03;;;-0.40;99.90;;;;;;4790166;29;20090;-77
2022/04/02 03:53:16;;;;;;;6.20;4.25;;;-0.40;99.90;;;;;;4790503;29;20063;-76
2022/04/02 03:55:55;;;;;;;5.40;4.03;;;-0.40;99.90;;;;;;4808047;29;20511;-78
2022/04/02 03:58:31;;;;;;;5.18;4.18;;;-0.40;99.90;;;;;;4793403;29;20058;-77
2022/04/02 04:01:03;;;;;;;6.28;4.88;;;-0.40;99.90;;;;;;4793323;29;20058;-78
2022/04/02 04:03:32;;;;;;;6.65;4.47;;;-0.40;99.90;;;;;;4789579;29;20066;-78
2022/04/02 04:06:00;;;;;;;5.10;3.95;;;-0.40;99.90;;;;;;4806509;29;20539;-78
2022/04/02 04:08:29;;;;;;;4.57;3.95;;;-0.30;99.90;;;;;;4805346;29;20063;-78
2022/04/02 04:10:57;;;;;;;8.82;4.00;;;-0.40;99.90;;;;;;4805245;29;20550;-79
2022/04/02 04:13:24;;;;;;;7.78;3.92;;;-0.30;99.90;;;;;;4806233;29;20054;-78
2022/04/02 04:15:57;;;;;;;14.88;3.70;;;-0.30;99.90;;;;;;4808358;29;20480;-78
2022/04/02 04:18:26;;;;;;;4.22;3.45;;;-0.30;99.90;;;;;;4808348;29;20516;-78
2022/04/02 04:20:54;;;;;;;3.83;3.42;;;-0.30;99.90;;;;;;4806594;29;20050;-78
2022/04/02 04:23:27;;;;;;;5.95;3.67;;;-0.30;99.90;;;;;;4808226;29;20074;-78
2022/04/02 04:25:59;;;;;;;5.78;4.47;;;-0.30;99.90;;;;;;4792792;29;20397;-78
2022/04/02 04:28:29;;;;;;;6.50;3.17;;;-0.20;99.90;;;;;;4793031;29;20058;-78
2022/04/02 04:30:58;;;;;;;8.23;4.57;;;-0.20;99.90;;;;;;4806790;29;20069;-78
2022/04/02 04:33:28;;;;;;;10.13;3.40;;;-0.20;99.90;;;;;;4824221;29;20078;-78
2022/04/02 04:35:59;;;;;;;5.10;3.00;;;-0.10;99.90;;;;;;4824106;29;20059;-77
2022/04/02 04:38:27;;;;;;;3.63;2.83;;;-0.10;99.90;;;;;;4791824;29;20067;-79
2022/04/02 04:40:59;;;;;;;3.92;2.78;;;-0.10;99.90;;;;;;4792822;29;20649;-78
2022/04/02 04:43:28;;;;;;;4.25;2.80;;;-0.10;99.90;;;;;;4822549;29;20062;-78
2022/04/02 04:45:55;;;;;;;7.68;3.58;;;0.00;99.90;;;;;;4792642;29;20134;-78
2022/04/02 04:48:24;;;;;;;3.30;2.95;;;0.00;99.90;;;;;;4823094;29;20061;-78
2022/04/02 04:50:57;;;;;;;4.30;2.85;;;0.10;99.90;;;;;;4807603;29;20082;-78
2022/04/02 04:53:26;;;;;;;6.32;3.15;;;0.10;99.90;;;;;;4824094;29;20110;-78
2022/04/02 04:55:55;;;;;;;3.38;2.90;;;0.20;99.90;;;;;;4807760;29;20058;-78
2022/04/02 04:58:25;;;;;;;9.27;3.13;;;0.20;99.90;;;;;;4806489;29;20058;-78
2022/04/02 05:00:57;;;;;;;5.68;2.95;;;0.20;99.90;;;;;;4792584;29;20502;-78
2022/04/02 05:03:25;;;;;;;6.00;2.70;;;0.30;99.90;;;;;;4807383;29;20063;-78
2022/04/02 05:05:54;;;;;;;3.67;2.90;;;0.30;99.90;;;;;;4806145;29;20054;-78
2022/04/02 05:08:26;;;;;;;4.50;2.53;;;0.40;99.90;;;;;;4791744;29;20603;-78
2022/04/02 05:10:59;;;;;;;3.65;2.47;;;0.40;99.90;;;;;;4807272;29;20472;-78
2022/04/02 05:13:33;;;;;;;4.78;3.05;;;0.40;99.90;;;;;;4806744;29;20062;-78
2022/04/02 05:16:01;;;;;;;5.68;3.30;;;0.50;99.90;;;;;;4791229;29;20116;-78
2022/04/02 05:18:29;;;;;;;5.15;2.92;;;0.50;99.90;;;;;;4807035;29;20070;-78
2022/04/02 05:20:57;;;;;;;5.78;2.92;;;0.60;99.90;;;;;;4822190;29;20088;-77
2022/04/02 05:23:29;;;;;;;4.63;2.72;;;0.70;99.90;;;;;;4791817;29;20058;-78
2022/04/02 05:25:58;;;;;;;5.80;3.63;;;0.80;99.90;;;;;;4790931;29;20065;-78
2022/04/02 05:28:29;;;;;;;4.32;3.10;;;0.80;99.90;;;;;;4806926;29;20640;-78
2022/04/02 05:30:57;;;;;;;4.97;2.72;;;1.00;99.90;;;;;;4792031;29;20085;-79
2022/04/02 05:33:25;;;;;;;5.10;3.00;;;1.00;99.90;;;;;;4790270;29;20149;-79
2022/04/02 05:35:52;;;;;;;6.10;3.10;;;1.10;99.90;;;;;;4823157;29;20062;-78
2022/04/02 05:38:20;;;;;;;7.47;2.95;;;1.20;99.90;;;;;;4823165;29;20161;-78
2022/04/02 05:40:49;;;;;;;6.70;3.03;;;1.20;99.90;;;;;;4811608;29;20129;-78
2022/04/02 05:43:16;;;;;;;7.10;3.40;;;1.30;99.90;;;;;;4804886;29;20144;-78
2022/04/02 05:45:44;;;;;;;8.45;3.83;;;1.40;99.90;;;;;;4795619;29;20062;-78
2022/04/02 05:48:12;;;;;;;7.07;3.70;;;1.40;99.90;;;;;;4805008;29;20069;-76
2022/04/02 05:50:39;;;;;;;5.35;3.40;;;1.40;99.90;;;;;;4804545;29;20066;-76
2022/04/02 05:53:07;;;;;;;10.60;3.40;;;1.50;99.90;;;;;;4819384;29;20065;-76
2022/04/02 05:55:35;;;;;;;6.65;3.05;;;1.50;99.90;;;;;;4818847;29;20149;-78
2022/04/02 05:58:04;;;;;;;8.85;3.80;;;1.60;99.90;;;;;;4823344;29;20069;-78
2022/04/02 06:00:33;;;;;;;9.55;3.80;;;1.60;99.90;;;;;;4805699;29;20115;-78
2022/04/02 06:03:00;;;;;;;7.18;3.65;;;1.70;99.90;;;;;;4791440;29;20054;-78
2022/04/02 06:05:28;;;;;;;6.45;3.33;;;1.70;99.90;;;;;;4806643;29;20058;-78
2022/04/02 06:07:55;;;;;;;10.98;3.33;;;1.70;99.90;;;;;;4822794;29;20141;-78
2022/04/02 06:10:23;;;;;;;11.23;4.45;;;1.80;99.90;;;;;;4805324;29;20419;-78
2022/04/02 06:12:51;;;;;;;9.88;3.88;;;1.90;99.90;;;;;;4822450;29;20061;-78
2022/04/02 06:15:21;;;;;;;7.72;3.40;;;2.10;99.90;;;;;;4806031;29;20070;-79
2022/04/02 06:17:49;;;;;;;7.22;3.50;;;2.20;99.90;;;;;;4804888;29;20074;-79
2022/04/02 06:20:16;;;;;;;11.85;3.35;;;2.40;99.90;;;;;;4821455;29;20084;-78
2022/04/02 06:22:44;;;;;;;11.52;3.53;;;2.50;99.90;;;;;;4822426;29;20058;-76
2022/04/02 06:25:11;;;;;;;23.27;6.32;;;2.50;99.90;;;;;;4822258;29;20086;-77
2022/04/02 06:27:54;;;;;;;11.70;4.03;;;2.60;99.90;;;;;;4784740;29;20063;-76
2022/04/02 06:30:23;;;;;;;15.30;4.03;;;2.70;99.90;;;;;;4801820;29;20070;-79
2022/04/02 06:33:00;;;;;;;13.43;3.88;;;2.80;99.90;;;;;;4818986;29;20534;-79
2022/04/02 06:35:29;;;;;;;6.00;3.83;;;2.90;99.90;;;;;;4773095;29;20397;-79
2022/04/02 06:37:58;;;;;;;9.35;3.90;;;3.20;99.90;;;;;;4786346;29;20054;-79
2022/04/02 06:40:27;;;;;;;11.38;3.50;;;3.60;99.90;;;;;;4804545;29;20066;-78
2022/04/02 06:42:56;;;;;;;13.48;4.22;;;4.10;99.90;;;;;;4815755;29;20149;-77
2022/04/02 06:45:49;;;;;;;6.78;3.83;;;4.40;99.90;;;;;;4815813;29;20069;-78
2022/04/02 06:48:16;;;;;;;11.07;3.60;;;5.30;99.90;;;;;;4805590;29;20062;-78
2022/04/02 06:50:44;;;;;;;15.88;4.88;;;6.30;99.90;;;;;;4805855;29;20089;-78
2022/04/02 06:53:11;;;;;;;11.85;3.97;;;7.30;99.90;;;;;;4822253;29;20061;-77
2022/04/02 06:55:40;;;;;;;13.30;4.07;;;7.90;99.30;;;;;;4804237;29;20074;-79
2022/04/02 06:58:08;;;;;;;15.43;3.63;;;8.30;93.60;;;;;;4819803;29;20497;-80
2022/04/02 07:00:36;;;;;;;16.33;3.55;;;9.00;89.20;;;;;;4806388;29;20103;-78
2022/04/02 07:03:05;;;;;;;8.10;3.35;;;9.50;81.50;;;;;;4819323;29;20366;-80
2022/04/02 07:05:32;;;;;;;5.07;3.05;;;10.00;73.90;;;;;;4804077;29;20515;-80
2022/04/02 07:08:00;;;;;;;6.55;3.13;;;10.30;71.30;;;;;;4801110;29;20522;-80
2022/04/02 07:10:28;;;;;;;6.63;2.75;;;10.60;68.20;;;;;;4801826;29;20063;-80
2022/04/02 07:13:05;;;;;;;6.32;3.25;;;10.80;66.80;;;;;;4783731;29;20055;-80
2022/04/02 07:15:34;;;;;;;7.63;2.85;;;11.20;65.80;;;;;;4768484;29;20151;-81
2022/04/02 07:18:10;;;;;;;15.68;4.05;;;;;;;;;;4808951;29;20524;-80
2022/04/02 07:20:48;;;;;;;7.18;3.22;;;11.80;62.30;;;;;;4789066;29;20432;-81
2022/04/02 07:23:28;;;;;;;10.43;3.55;;;12.20;60.30;;;;;;4802550;29;20089;-81
2022/04/02 07:25:57;;;;;;;9.75;3.15;;;12.30;58.90;;;;;;4822913;29;20586;-80
2022/04/02 07:28:27;;;;;;;7.22;2.88;;;12.40;58.30;;;;;;4821110;29;20381;-83
2022/04/02 07:30:55;;;;;;;9.07;3.25;;;12.50;57.80;;;;;;4821042;29;20137;-80
2022/04/02 07:33:27;;;;;;;9.43;3.60;;;12.80;56.90;;;;;;4790025;29;20065;-82
2022/04/02 07:35:59;;;;;;;9.63;3.47;;;13.10;56.20;;;;;;4821745;29;20545;-80
2022/04/02 07:38:39;;;;;;;9.10;3.50;;;13.50;55.40;;;;;;4802035;29;20054;-81
2022/04/02 07:41:21;;;;;;;10.65;3.55;;;13.70;54.00;;;;;;4809648;29;20154;-79
2022/04/02 07:43:56;;;;;;;15.65;4.25;;;14.00;53.00;;;;;;4817839;29;20047;-79
2022/04/02 07:46:29;;;;;;;12.55;4.22;;;14.30;52.80;;;;;;4805097;29;20057;-79
2022/04/02 07:48:58;;;;;;;;;;;14.50;51.60;;;;;;4821412;29;20415;-78
2022/04/02 07:51:31;;;;;;;16.23;4.22;;;14.60;50.80;;;;;;4803489;29;20433;-78
2022/04/02 07:54:04;;;;;;;12.00;4.13;;;14.40;51.40;;;;;;4802305;29;20534;-79
2022/04/02 07:56:38;;;;;;;6.82;3.05;;;13.50;51.20;;;;;;4805858;29;20082;-79
2022/04/02 07:59:09;;;;;;;;;;;12.90;52.20;;;;;;4823633;29;20066;-78
2022/04/02 08:01:37;;;;;;;11.18;3.90;;;12.20;53.20;;;;;;4821691;29;19928;-79
2022/04/02 08:04:06;;;;;;;6.25;3.05;;;11.60;53.90;;;;;;4799135;29;20055;-79
2022/04/02 08:06:34;;;;;;;6.57;3.05;;;11.20;54.20;;;;;;4814349;29;20080;-79
2022/04/02 08:09:02;;;;;;;7.30;3.30;;;11.50;55.30;;;;;;4797835;29;20062;-83
2022/04/02 08:11:37;;;;;;;9.93;3.10;;;12.10;54.60;;;;;;4801684;29;20161;-82
2022/04/02 08:14:05;;;;;;;5.18;3.17;;;12.70;53.20;;;;;;4814383;29;20059;-83
2022/04/02 08:16:37;;;;;;;9.02;3.05;;;13.30;51.90;;;;;;4796647;29;20054;-83
2022/04/02 08:19:07;;;;;;;8.40;3.42;;;14.00;51.20;;;;;;4819503;29;20052;-84
2022/04/02 08:21:35;;;;;;;8.60;3.40;;;14.40;50.10;;;;;;4798534;29;20524;-79
2022/04/02 08:24:03;;;;;;;6.43;3.00;;;14.80;49.10;;;;;;4814755;29;20162;-82
2022/04/02 08:26:51;;;;;;;9.18;4.40;;;15.10;48.90;;;;;;4818157;29;20059;-81
2022/04/02 08:29:42;;;;;;;11.77;4.93;;;15.40;48.40;;;;;;4813987;29;20054;-79
2022/04/02 08:32:26;;;;;;;8.20;3.47;;;16.00;48.40;;;;;;4813749;29;20078;-83
2022/04/02 08:35:07;;;;;;;8.18;3.72;;;15.90;46.20;;;;;;4817563;29;20438;-80
2022/04/02 08:38:03;;;;;;;9.27;3.53;;;16.30;46.60;;;;;;4790248;29;20075;-81
2022/04/02 08:41:18;;;;;;;9.82;3.88;;;16.90;46.00;;;;;;4823486;29;20066;-81
2022/04/02 08:44:29;;;;;;;7.70;3.50;;;17.50;44.10;;;;;;4798194;29;20059;-80
2022/04/02 08:47:16;;;;;;;5.18;3.38;;;17.80;44.10;;;;;;4781894;29;20054;-77
2022/04/02 08:49:58;;;;;;;9.48;3.20;;;18.20;43.00;;;;;;4822385;29;20059;-82
2022/04/02 08:52:50;;;;;;;9.23;3.75;;;18.60;42.90;;;;;;4822099;29;20063;-77
2022/04/02 08:55:20;;;;;;;11.35;3.17;;;19.10;41.70;;;;;;4804958;29;20107;-82
2022/04/02 08:58:10;;;;;;;12.20;3.20;;;19.70;40.60;;;;;;4818389;29;20054;-79
2022/04/02 09:00:44;;;;;;;13.02;2.97;;;20.00;39.20;;;;;;4814328;29;20070;-84
2022/04/02 09:04:18;;;;;;;10.88;3.65;;;19.70;39.60;;;;;;4816765;29;20432;-80
2022/04/02 09:07:40;;;;;;;11.13;3.17;;;18.80;39.30;;;;;;4815577;29;20054;-80
2022/04/02 09:10:49;;;;;;;9.27;3.00;;;16.80;41.10;;;;;;4821811;29;20068;-80
2022/04/02 09:13:49;;;;;;;14.57;3.28;;;14.90;43.50;;;;;;4812443;29;20061;-82
2022/04/02 09:16:23;;;;;;;5.05;3.00;;;13.30;45.30;;;;;;4816178;29;20062;-79
2022/04/02 09:19:16;;;;;;;5.97;2.83;;;12.00;47.50;;;;;;4806313;29;20078;-83
2022/04/02 09:22:07;;;;;;;4.22;2.38;;;10.70;48.50;;;;;;4822282;29;20426;-83
2022/04/02 09:25:25;;;;;;;7.57;2.78;;;9.90;50.70;;;;;;4803159;29;20059;-80
2022/04/02 09:28:12;;;;;;;7.65;2.70;;;9.40;52.50;;;;;;4822685;29;20058;-80
2022/04/02 09:31:44;;;;;;;10.00;2.83;;;9.10;52.90;;;;;;4822987;29;20062;-79
2022/04/02 09:35:30;;;;;;;5.65;3.17;;;8.80;52.90;;;;;;4818858;29;20055;-78
2022/04/02 09:38:18;;;;;;;12.00;2.85;;;8.40;52.90;;;;;;4743222;30;20595;-77
2022/04/02 09:40:52;;;;;;;7.93;2.70;;;8.40;54.10;;;;;;4740859;30;20065;-79
2022/04/02 09:43:27;;;;;;;6.53;2.95;;;8.50;54.20;;;;;;4795174;29;20068;-79
2022/04/02 09:46:33;;;;;;;10.63;3.05;;;8.60;55.50;;;;;;4816920;29;20077;-79
2022/04/02 09:49:10;;;;;;;9.65;2.45;;;9.00;55.00;;;;;;4797303;29;20078;-78
2022/04/02 09:51:43;;;;;;;2.60;1.70;;;9.70;51.70;;;;;;4812314;29;20058;-78
2022/04/02 09:54:21;;;;;;;1.92;1.67;;;10.20;50.20;;;;;;4795649;29;20063;-78
2022/04/02 09:57:07;;;;;;;4.15;1.67;;;11.20;48.30;;;;;;4811935;29;20527;-78
2022/04/02 09:59:48;;;;;;;5.63;2.00;;;12.20;46.50;;;;;;4816265;29;20066;-80
2022/04/02 10:02:38;;;;;;;4.22;1.50;;;13.20;45.80;;;;;;4809530;29;20090;-80
2022/04/02 10:05:08;;;;;;;4.45;1.50;;;14.40;44.30;;;;;;4800282;29;20527;-80
2022/04/02 10:07:52;;;;;;;3.00;1.83;;;14.60;42.00;;;;;;4817828;29;20459;-80
2022/04/02 10:10:26;;;;;;;3.63;1.77;;;15.30;42.30;;;;;;4797391;29;20425;-80
2022/04/02 10:12:56;;;;;;;6.38;1.75;;;16.60;40.20;;;;;;4786380;29;20060;-80
2022/04/02 10:15:26;;;;;;;8.45;1.60;;;17.90;39.30;;;;;;4805936;29;20153;-80
2022/04/02 10:17:54;;;;;;;4.90;1.80;;;18.70;37.50;;;;;;4805970;29;20046;-77
2022/04/02 10:20:28;;;;;;;3.75;1.83;;;19.20;36.10;;;;;;4799608;29;20142;-74
2022/04/02 10:23:05;;;;;;;5.47;1.80;;;19.70;36.40;;;;;;4821781;29;20099;-76
2022/04/02 10:25:44;;;;;;;4.93;1.90;;;20.10;35.50;;;;;;4817021;29;20277;-76
2022/04/02 10:28:17;;;;;;;3.05;1.50;;;19.20;34.60;;;;;;4802332;29;20062;-76
2022/04/02 10:30:49;;;;;;;5.07;1.80;;;17.60;36.50;;;;;;4819876;29;20130;-77
2022/04/02 10:33:29;;;;;;;9.88;2.00;;;16.60;37.70;;;;;;4802972;29;20089;-76
2022/04/02 10:35:57;;;;;;;5.60;2.20;;;17.40;38.50;;;;;;4817355;29;20058;-76
2022/04/02 10:38:36;;;;;;;2.58;1.73;;;17.20;36.90;;;;;;4801465;29;20061;-76
2022/04/02 10:41:09;;;;;;;10.20;2.17;;;17.00;36.90;;;;;;4819531;29;20062;-75
2022/04/02 10:43:50;;;;;;;6.95;1.83;;;17.30;38.10;;;;;;4819511;29;20054;-75
2022/04/02 10:46:21;;;;;;;2.38;1.40;;;17.60;37.40;;;;;;4815369;29;20088;-75
2022/04/02 10:48:57;;;;;;;2.63;1.67;;;16.10;37.00;;;;;;4820598;29;20066;-77
2022/04/02 10:51:30;;;;;;;7.40;1.80;;;14.40;38.30;;;;;;4821901;29;20066;-76
2022/04/02 10:54:04;;;;;;;5.25;1.92;;;13.00;40.60;;;;;;4819765;29;20071;-76
2022/04/02 10:56:36;;;;;;;3.63;2.33;;;12.00;41.90;;;;;;4820541;29;20089;-75
2022/04/02 10:59:09;;;;;;;7.82;2.50;;;11.10;43.20;;;;;;4820207;29;20068;-76
2022/04/02 11:01:41;;;;;;;4.03;2.58;;;10.60;45.30;;;;;;4804108;29;20073;-75
2022/04/02 11:04:29;;;;;;;6.50;2.50;;;10.20;46.00;;;;;;4819797;29;20050;-76
2022/04/02 11:06:57;;;;;;;10.82;2.25;;;9.90;47.60;;;;;;4820074;29;20311;-76
2022/04/02 11:09:32;;;;;;;12.50;2.95;;;9.50;47.00;;;;;;4820882;29;20157;-76
2022/04/02 11:12:07;;;;;;;6.90;2.10;;;9.30;47.80;;;;;;4817890;29;20477;-77
2022/04/02 11:14:44;;;;;;;11.52;2.88;;;9.10;48.30;;;;;;4803771;29;20066;-77
2022/04/02 11:17:29;;;;;;;4.78;1.92;;;8.80;48.70;;;;;;4802176;29;20070;-76
2022/04/02 11:20:10;;;;;;;8.27;2.28;;;8.70;49.00;;;;;;4787009;29;20120;-75
2022/04/02 11:23:19;;;;;;;8.63;2.40;;;8.40;49.80;;;;;;4817982;29;20546;-76
2022/04/02 11:25:50;;;;;;;9.25;3.17;;;8.20;51.10;;;;;;4819087;29;20115;-77
2022/04/02 11:28:20;;;;;;;8.35;3.58;;;8.20;51.40;;;;;;4804919;29;20058;-76
2022/04/02 11:30:53;;;;;;;8.75;2.40;;;8.20;51.40;;;;;;4819693;29;20374;-76
2022/04/02 11:33:23;;;;;;;6.78;2.13;;;8.30;51.80;;;;;;4825258;29;20074;-79
2022/04/02 11:35:53;;;;;;;7.95;2.60;;;8.30;51.30;;;;;;4806740;29;20066;-79
2022/04/02 11:38:42;;;;;;;7.68;2.83;;;8.60;50.00;;;;;;4824844;29;20093;-80
2022/04/02 11:41:21;;;;;;;10.38;2.45;;;9.40;49.60;;;;;;4821760;29;20058;-79
2022/04/02 11:43:52;;;;;;;6.80;2.88;;;9.60;49.20;;;;;;4824382;29;20438;-79
2022/04/02 11:46:22;;;;;;;8.85;2.40;;;9.60;47.80;;;;;;4824815;29;20050;-78
2022/04/02 11:48:55;;;;;;;3.95;1.98;;;9.50;48.10;;;;;;4821291;29;20090;-77
2022/04/02 11:51:25;;;;;;;8.07;2.47;;;9.50;47.60;;;;;;4808290;29;20066;-76
2022/04/02 11:53:53;;;;;;;10.90;2.42;;;9.70;47.40;;;;;;4823969;29;20058;-77
2022/04/02 11:56:27;;;;;;;11.73;2.20;;;10.80;48.60;;;;;;4808121;29;20058;-78
2022/04/02 11:58:57;;;;;;;7.45;2.03;;;11.50;45.50;;;;;;4821513;29;20355;-78
2022/04/02 12:01:26;;;;;;;10.60;3.13;;;11.30;44.40;;;;;;4807865;29;20068;-77
2022/04/02 12:04:09;;;;;;;10.43;2.55;;;10.90;44.60;;;;;;4821479;29;20692;-79
2022/04/02 12:06:38;;;;;;;12.15;2.45;;;10.40;46.60;;;;;;4812426;29;20054;-79
2022/04/02 12:09:19;;;;;;;6.05;2.50;;;9.90;48.20;;;;;;4821216;29;20060;-77
2022/04/02 12:11:53;;;;;;;14.88;2.35;;;9.50;48.30;;;;;;4821127;29;20061;-80
2022/04/02 12:14:32;;;;;;;8.23;2.50;;;9.10;48.40;;;;;;4821906;29;20177;-78
2022/04/02 12:17:05;;;;;;;10.07;2.42;;;8.90;48.60;;;;;;4820274;29;20066;-79
2022/04/02 12:19:42;;;;;;;8.15;3.08;;;8.90;49.40;;;;;;4821032;29;20428;-79
2022/04/02 12:22:28;;;;;;;6.47;2.38;;;8.80;49.30;;;;;;4821826;29;20054;-80
2022/04/02 12:25:01;;;;;;;15.90;2.88;;;8.60;49.90;;;;;;4823853;29;20519;-80
2022/04/02 12:27:34;;;;;;;7.03;1.92;;;8.40;50.80;;;;;;4791088;29;20062;-77
2022/04/02 12:30:08;;;;;;;6.22;2.05;;;8.40;50.60;;;;;;4822027;29;20157;-79
2022/04/02 12:32:39;;;;;;;2.85;1.88;;;8.60;51.20;;;;;;4822321;29;20149;-79
2022/04/02 12:35:10;;;;;;;4.80;2.13;;;8.90;51.10;;;;;;4822529;29;20095;-75
2022/04/02 12:37:43;;;;;;;19.75;3.03;;;9.20;51.30;;;;;;4822504;29;20587;-75
2022/04/02 12:40:21;;;;;;;12.98;2.72;;;9.50;49.90;;;;;;4822248;29;20515;-76
2022/04/02 12:42:50;;;;;;;4.45;2.55;;;10.80;49.10;;;;;;4791257;29;20066;-75
2022/04/02 12:45:22;;;;;;;5.55;2.42;;;11.70;47.10;;;;;;4821350;29;20061;-76
2022/04/02 12:48:02;;;;;;;6.93;2.10;;;11.80;45.00;;;;;;4822441;29;20457;-79
2022/04/02 12:50:32;;;;;;;5.32;2.17;;;12.60;44.80;;;;;;4790143;29;20069;-80
2022/04/02 12:53:00;;;;;;;7.10;2.10;;;13.40;43.40;;;;;;4818902;29;20059;-80
2022/04/02 12:55:34;;;;;;;6.00;1.98;;;13.20;42.20;;;;;;4803793;29;20062;-80
2022/04/02 12:58:08;;;;;;;4.03;2.17;;;13.20;42.80;;;;;;4820282;29;20054;-78
2022/04/02 13:00:37;;;;;;;5.78;2.50;;;14.80;42.00;;;;;;4821596;29;20153;-81
2022/04/02 13:03:07;;;;;;;7.38;2.60;;;16.40;39.30;;;;;;4806025;29;20464;-82
2022/04/02 13:05:48;;;;;;;9.48;2.65;;;17.80;37.80;;;;;;4804444;29;20205;-80
2022/04/02 13:08:41;;;;;;;3.58;2.25;;;18.70;35.70;;;;;;4804664;29;20055;-80
2022/04/02 13:11:13;;;;;;;6.60;2.13;;;19.20;35.10;;;;;;4816372;29;20096;-81
2022/04/02 13:13:45;;;;;;;7.55;2.80;;;19.70;34.30;;;;;;4803297;29;20065;-81
2022/04/02 13:16:14;;;;;;;5.40;2.97;;;20.10;34.40;;;;;;4820131;29;20599;-81
2022/04/02 13:21:41;;;;;;;10.38;3.00;;;20.70;33.40;;;;;;4827184;29;20138;-79
2022/04/02 13:24:29;;;;;;;3.67;1.98;;;20.80;33.40;;;;;;4822802;29;20062;-81
2022/04/02 13:27:18;;;;;;;5.07;2.17;;;21.00;32.60;;;;;;4822117;29;20201;-78
2022/04/02 13:30:04;;;;;;;4.60;2.28;;;21.00;33.10;;;;;;4820852;29;20140;-81